createdAt,value
2023-03-12T00:02:14.863Z,14.44
2023-03-12T00:04:42.792Z,14.39
2023-03-12T00:07:10.735Z,14.39
2023-03-12T00:09:39.283Z,14.37
2023-03-12T00:12:08.174Z,14.28
2023-03-12T00:14:36.064Z,14.32
2023-03-12T00:17:05.396Z,14.30
2023-03-12T00:19:33.270Z,14.27
2023-03-12T00:22:01.216Z,14.27
2023-03-12T00:24:29.130Z,14.26
2023-03-12T00:26:57.310Z,14.28
2023-03-12T00:29:25.227Z,14.21
2023-03-12T00:31:53.301Z,14.14
2023-03-12T00:34:22.578Z,14.13
2023-03-12T00:36:50.505Z,14.14
2023-03-12T00:39:18.519Z,14.14
2023-03-12T00:41:46.441Z,14.16
2023-03-12T00:44:14.418Z,14.15
2023-03-12T00:46:42.467Z,14.18
2023-03-12T00:49:11.723Z,14.19
2023-03-12T00:51:41.083Z,14.20
2023-03-12T00:54:09.054Z,14.21
2023-03-12T00:56:36.979Z,14.19
2023-03-12T00:59:05.048Z,14.11
2023-03-12T01:01:33.004Z,14.21
2023-03-12T01:04:00.962Z,14.20
2023-03-12T01:06:29.066Z,14.19
2023-03-12T01:08:58.403Z,14.23
2023-03-12T01:11:26.556Z,14.22
2023-03-12T01:13:54.486Z,14.22
2023-03-12T01:16:22.645Z,14.22
2023-03-12T01:18:50.554Z,14.19
2023-03-12T01:21:18.477Z,14.18
2023-03-12T01:23:46.369Z,14.18
2023-03-12T01:26:15.721Z,14.18
2023-03-12T01:28:43.778Z,14.10
2023-03-12T01:31:12.839Z,14.11
2023-03-12T01:33:40.824Z,14.06
2023-03-12T01:36:16.848Z,14.10
2023-03-12T01:38:44.845Z,14.13
2023-03-12T01:41:12.749Z,14.12
2023-03-12T01:43:42.382Z,14.12
2023-03-12T01:46:28.479Z,14.11
2023-03-12T01:48:59.466Z,14.09
2023-03-12T01:51:29.262Z,14.09
2023-03-12T01:53:58.876Z,14.06
2023-03-12T01:56:27.996Z,14.03
2023-03-12T01:58:58.975Z,14.05
2023-03-12T02:01:27.295Z,14.00
2023-03-12T02:03:55.999Z,14.01
2023-03-12T02:06:26.714Z,14.00
2023-03-12T02:08:54.686Z,14.04
2023-03-12T02:11:22.808Z,13.86
2023-03-12T02:13:50.873Z,13.80
2023-03-12T02:16:20.386Z,13.83
2023-03-12T02:18:48.587Z,13.83
2023-03-12T02:21:18.301Z,13.83
2023-03-12T02:23:48.729Z,13.91
2023-03-12T02:26:18.142Z,13.78
2023-03-12T02:28:46.587Z,13.97
2023-03-12T02:31:16.070Z,13.94
2023-03-12T02:33:44.263Z,14.01
2023-03-12T02:36:12.581Z,13.86
2023-03-12T02:38:42.911Z,13.89
2023-03-12T02:41:16.542Z,13.90
2023-03-12T02:43:47.106Z,13.82
2023-03-12T02:46:15.147Z,13.79
2023-03-12T02:48:43.075Z,13.78
2023-03-12T02:51:11.551Z,13.75
2023-03-12T02:53:39.529Z,13.72
2023-03-12T02:56:08.829Z,13.68
2023-03-12T02:58:37.513Z,13.72
2023-03-12T03:01:07.108Z,13.66
2023-03-12T03:03:35.053Z,13.65
2023-03-12T03:06:02.969Z,13.59
2023-03-12T03:08:30.936Z,13.71
2023-03-12T03:10:59.141Z,13.66
2023-03-12T03:13:27.269Z,13.71
2023-03-12T03:15:57.655Z,13.76
2023-03-12T03:18:27.159Z,13.74
2023-03-12T03:20:58.327Z,13.77
2023-03-12T03:23:26.527Z,13.82
2023-03-12T03:25:54.405Z,13.76
2023-03-12T03:28:22.671Z,13.87
2023-03-12T03:30:50.687Z,13.96
2023-03-12T03:33:18.674Z,13.95
2023-03-12T03:35:48.977Z,14.04
2023-03-12T03:38:17.643Z,13.98
2023-03-12T03:40:45.821Z,14.05
2023-03-12T03:43:13.956Z,14.11
2023-03-12T03:45:44.761Z,14.03
2023-03-12T03:48:12.812Z,13.96
2023-03-12T03:50:40.890Z,14.11
2023-03-12T03:53:10.882Z,14.15
2023-03-12T03:55:39.113Z,14.17
2023-03-12T03:58:07.855Z,14.25
2023-03-12T04:00:36.174Z,14.27
2023-03-12T04:03:04.494Z,14.28
2023-03-12T04:05:32.974Z,14.28
2023-03-12T04:08:03.249Z,14.28
2023-03-12T04:10:34.868Z,14.19
2023-03-12T04:13:02.865Z,14.11
2023-03-12T04:15:31.114Z,14.05
2023-03-12T04:17:59.305Z,13.98
2023-03-12T04:20:28.709Z,13.88
2023-03-12T04:22:58.462Z,13.81
2023-03-12T04:25:26.419Z,13.77
2023-03-12T04:27:55.719Z,13.77
2023-03-12T04:30:23.722Z,13.77
2023-03-12T04:32:51.793Z,13.75
2023-03-12T04:35:19.798Z,13.76
2023-03-12T04:37:47.740Z,13.77
2023-03-12T04:40:16.287Z,13.78
2023-03-12T04:42:44.214Z,13.77
2023-03-12T04:45:14.057Z,13.80
2023-03-12T04:47:46.002Z,13.87
2023-03-12T04:50:15.625Z,13.89
2023-03-12T04:52:43.599Z,13.91
2023-03-12T04:55:12.506Z,13.95
2023-03-12T04:57:40.866Z,13.97
2023-03-12T05:00:13.074Z,14.02
2023-03-12T05:02:42.971Z,14.00
2023-03-12T05:05:11.960Z,14.08
2023-03-12T05:07:40.986Z,14.02
2023-03-12T05:10:09.983Z,14.09
2023-03-12T05:12:38.145Z,14.06
2023-03-12T05:15:06.966Z,14.11
2023-03-12T05:17:35.015Z,14.11
2023-03-12T05:20:05.258Z,14.06
2023-03-12T05:22:33.506Z,13.96
2023-03-12T05:25:01.475Z,14.05
2023-03-12T05:27:31.786Z,14.11
2023-03-12T05:29:59.925Z,14.16
2023-03-12T05:32:28.097Z,14.07
2023-03-12T05:34:56.064Z,14.08
2023-03-12T05:37:25.413Z,14.08
2023-03-12T05:39:54.987Z,14.08
2023-03-12T05:42:23.101Z,14.06
2023-03-12T05:44:51.492Z,13.99
2023-03-12T05:47:21.412Z,14.07
2023-03-12T05:49:50.040Z,14.03
2023-03-12T05:52:18.175Z,14.10
2023-03-12T05:54:47.516Z,14.05
2023-03-12T05:57:15.572Z,14.11
2023-03-12T05:59:43.584Z,14.08
2023-03-12T06:02:11.785Z,14.05
2023-03-12T06:04:39.856Z,14.13
2023-03-12T06:07:08.490Z,14.19
2023-03-12T06:09:36.849Z,14.08
2023-03-12T06:12:06.966Z,14.21
2023-03-12T06:14:35.455Z,14.25
2023-03-12T06:17:03.457Z,14.19
2023-03-12T06:19:31.460Z,14.25
2023-03-12T06:21:59.497Z,14.29
2023-03-12T06:24:29.044Z,14.27
2023-03-12T06:27:03.097Z,14.31
2023-03-12T06:29:32.531Z,14.32
2023-03-12T06:32:00.527Z,14.35
2023-03-12T06:34:28.561Z,14.30
2023-03-12T06:36:56.506Z,14.36
2023-03-12T06:39:24.472Z,14.36
2023-03-12T06:41:52.486Z,14.35
2023-03-12T06:44:20.450Z,14.41
2023-03-12T06:46:49.768Z,14.41
2023-03-12T06:49:18.070Z,14.45
2023-03-12T06:51:46.059Z,14.41
2023-03-12T06:54:13.930Z,14.43
2023-03-12T06:56:41.826Z,14.39
2023-03-12T06:59:09.894Z,14.40
2023-03-12T07:01:38.042Z,14.35
2023-03-12T07:04:07.736Z,14.37
2023-03-12T07:06:35.695Z,14.37
2023-03-12T07:09:04.919Z,14.40
2023-03-12T07:11:32.836Z,14.42
2023-03-12T07:14:00.740Z,14.41
2023-03-12T07:16:28.957Z,14.42
2023-03-12T07:18:56.856Z,14.42
2023-03-12T07:21:26.208Z,14.44
2023-03-12T07:23:54.353Z,14.44
2023-03-12T07:26:22.285Z,14.46
2023-03-12T07:28:50.524Z,14.43
2023-03-12T07:31:18.473Z,14.41
2023-03-12T07:33:46.497Z,14.44
2023-03-12T07:36:14.546Z,14.41
2023-03-12T07:38:44.048Z,14.45
2023-03-12T07:41:11.996Z,14.45
2023-03-12T07:43:40.255Z,14.45
2023-03-12T07:46:08.235Z,14.44
2023-03-12T07:48:36.131Z,14.45
2023-03-12T07:51:04.120Z,14.48
2023-03-12T07:53:32.022Z,14.52
2023-03-12T07:56:01.428Z,14.55
2023-03-12T07:58:29.442Z,14.61
2023-03-12T08:00:57.465Z,14.62
2023-03-12T08:03:25.892Z,14.66
2023-03-12T08:05:58.175Z,14.69
2023-03-12T08:08:26.395Z,14.73
2023-03-12T08:10:54.464Z,14.78
2023-03-12T08:13:24.422Z,14.84
2023-03-12T08:15:52.994Z,14.91
2023-03-12T08:18:21.055Z,14.93
2023-03-12T08:20:51.205Z,14.99
2023-03-12T08:23:19.183Z,15.00
2023-03-12T08:25:47.408Z,15.06
2023-03-12T08:28:15.573Z,15.08
2023-03-12T08:30:48.044Z,15.12
2023-03-12T08:33:15.949Z,15.15
2023-03-12T08:35:43.945Z,15.17
2023-03-12T08:38:12.026Z,15.20
2023-03-12T08:40:39.965Z,15.22
2023-03-12T08:43:09.151Z,15.22
2023-03-12T08:45:37.362Z,15.29
2023-03-12T08:48:07.086Z,15.29
2023-03-12T08:50:35.383Z,15.32
2023-03-12T08:53:03.357Z,15.38
2023-03-12T08:55:31.252Z,15.43
2023-03-12T08:57:59.207Z,15.52
2023-03-12T09:00:27.255Z,15.55
2023-03-12T09:02:58.255Z,15.49
2023-03-12T09:05:30.034Z,15.59
2023-03-12T09:07:58.345Z,15.62
2023-03-12T09:10:30.290Z,15.70
2023-03-12T09:12:58.978Z,15.74
2023-03-12T09:15:26.956Z,15.84
2023-03-12T09:17:55.781Z,15.89
2023-03-12T09:20:24.009Z,15.92
2023-03-12T09:22:53.278Z,15.91
2023-03-12T09:25:23.236Z,16.01
2023-03-12T09:27:51.378Z,16.07
2023-03-12T09:30:20.788Z,16.11
2023-03-12T09:32:48.810Z,16.13
2023-03-12T09:35:17.275Z,16.24
2023-03-12T09:37:45.440Z,16.28
2023-03-12T09:40:17.147Z,16.29
2023-03-12T09:42:47.612Z,16.31
2023-03-12T09:45:17.416Z,16.34
2023-03-12T09:47:47.983Z,16.37
2023-03-12T09:50:21.133Z,16.50
2023-03-12T09:52:51.601Z,16.42
2023-03-12T09:55:22.505Z,16.42
2023-03-12T09:57:51.606Z,16.45
2023-03-12T10:00:21.112Z,16.48
2023-03-12T10:03:12.177Z,16.54
2023-03-12T10:05:42.163Z,16.56
2023-03-12T10:08:25.158Z,16.57
2023-03-12T10:11:03.078Z,16.58
2023-03-12T10:13:55.239Z,16.69
2023-03-12T10:16:31.426Z,16.77
2023-03-12T10:19:11.249Z,16.85
2023-03-12T10:21:42.208Z,16.93
2023-03-12T10:24:17.959Z,16.84
2023-03-12T10:26:48.635Z,16.84
2023-03-12T10:29:17.871Z,17.06
2023-03-12T10:31:51.829Z,16.94
2023-03-12T10:34:22.143Z,16.98
2023-03-12T10:36:50.142Z,17.06
2023-03-12T10:39:18.998Z,17.00
2023-03-12T10:41:49.181Z,17.04
2023-03-12T10:44:19.550Z,16.97
2023-03-12T10:46:55.247Z,16.98
2023-03-12T10:49:35.816Z,17.02
2023-03-12T10:52:06.709Z,16.99
2023-03-12T10:54:37.047Z,17.00
2023-03-12T10:57:06.728Z,16.95
2023-03-12T10:59:35.495Z,16.99
2023-03-12T11:02:03.781Z,17.04
2023-03-12T11:04:32.158Z,17.03
2023-03-12T11:07:17.644Z,17.10
2023-03-12T11:09:45.757Z,17.11
2023-03-12T11:12:28.247Z,17.07
2023-03-12T11:14:56.171Z,17.10
2023-03-12T11:17:24.880Z,17.10
2023-03-12T11:19:53.015Z,17.24
2023-03-12T11:22:31.531Z,17.26
2023-03-12T11:25:00.421Z,17.25
2023-03-12T11:27:48.914Z,17.24
2023-03-12T11:30:18.601Z,17.20
2023-03-12T11:32:47.367Z,17.22
2023-03-12T11:35:16.294Z,17.17
2023-03-12T11:37:51.309Z,17.23
2023-03-12T11:40:22.545Z,17.30
2023-03-12T11:43:02.651Z,17.29
2023-03-12T11:45:33.112Z,17.16
2023-03-12T11:48:07.158Z,17.12
2023-03-12T11:50:41.814Z,17.09
2023-03-12T11:53:34.445Z,16.99
2023-03-12T11:56:08.911Z,16.96
2023-03-12T11:58:55.128Z,17.00
2023-03-12T12:01:26.775Z,16.99
2023-03-12T12:04:37.471Z,16.99
2023-03-12T12:07:09.983Z,17.04
2023-03-12T12:09:40.041Z,17.22
2023-03-12T12:12:14.159Z,17.27
2023-03-12T12:14:51.198Z,17.31
2023-03-12T12:17:24.977Z,17.40
2023-03-12T12:20:09.060Z,17.44
2023-03-12T12:22:44.673Z,17.46
2023-03-12T12:25:31.284Z,17.49
2023-03-12T12:28:08.111Z,17.48
2023-03-12T12:30:46.307Z,17.48
2023-03-12T12:33:22.744Z,17.50
2023-03-12T12:35:51.065Z,17.49
2023-03-12T12:38:22.105Z,17.46
2023-03-12T12:40:52.034Z,17.49
2023-03-12T12:43:28.008Z,17.51
2023-03-12T12:45:59.507Z,17.45
2023-03-12T12:48:29.689Z,17.43
2023-03-12T12:51:00.139Z,17.48
2023-03-12T12:53:30.895Z,17.46
2023-03-12T12:56:03.875Z,17.51
2023-03-12T12:58:44.399Z,17.55
2023-03-12T13:01:14.619Z,17.61
2023-03-12T13:03:42.896Z,17.60
2023-03-12T13:06:11.531Z,17.56
2023-03-12T13:09:02.334Z,17.53
2023-03-12T13:11:31.734Z,17.49
2023-03-12T13:14:20.659Z,17.42
2023-03-12T13:16:50.307Z,17.37
2023-03-12T13:19:26.527Z,17.36
2023-03-12T13:22:01.198Z,17.26
2023-03-12T13:24:31.286Z,17.20
2023-03-12T13:27:01.667Z,17.02
2023-03-12T13:29:40.927Z,16.85
2023-03-12T13:32:51.821Z,16.67
2023-03-12T13:35:40.796Z,16.55
2023-03-12T13:38:13.624Z,16.53
2023-03-12T13:40:55.462Z,16.56
2023-03-12T13:43:51.047Z,16.60
2023-03-12T13:46:38.156Z,16.62
2023-03-12T13:49:12.298Z,16.63
2023-03-12T13:51:57.889Z,16.57
2023-03-12T13:54:28.413Z,16.63
2023-03-12T13:57:01.116Z,16.74
2023-03-12T13:59:29.494Z,16.90
2023-03-12T14:01:59.196Z,16.98
2023-03-12T14:04:31.788Z,17.01
2023-03-12T14:07:10.609Z,16.98
2023-03-12T14:09:40.574Z,16.99
2023-03-12T14:12:10.677Z,16.98
2023-03-12T14:14:59.530Z,16.98
2023-03-12T14:17:28.265Z,17.03
2023-03-12T14:20:01.435Z,17.01
2023-03-12T14:22:30.052Z,16.96
2023-03-12T14:24:58.477Z,16.95
2023-03-12T14:27:27.687Z,16.95
2023-03-12T14:29:58.041Z,16.97
2023-03-12T14:32:28.941Z,16.91
2023-03-12T14:35:00.144Z,16.87
2023-03-12T14:37:30.757Z,16.95
2023-03-12T14:39:59.576Z,16.94
2023-03-12T14:42:29.780Z,16.92
2023-03-12T14:44:59.490Z,16.85
2023-03-12T14:47:27.552Z,16.90
2023-03-12T14:49:56.854Z,16.89
2023-03-12T14:52:27.594Z,16.83
2023-03-12T14:54:57.137Z,16.82
2023-03-12T14:57:25.869Z,16.75
2023-03-12T14:59:53.983Z,16.73
2023-03-12T15:02:21.975Z,16.70
2023-03-12T15:04:50.249Z,16.68
2023-03-12T15:07:19.741Z,16.68
2023-03-12T15:09:50.874Z,16.69
2023-03-12T15:12:20.521Z,16.74
2023-03-12T15:14:48.896Z,16.78
2023-03-12T15:17:17.818Z,16.85
2023-03-12T15:19:46.063Z,16.84
2023-03-12T15:22:16.022Z,16.87
2023-03-12T15:24:44.159Z,16.89
2023-03-12T15:27:34.880Z,16.93
2023-03-12T15:30:03.136Z,16.93
2023-03-12T15:32:31.874Z,16.89
2023-03-12T15:35:00.328Z,16.91
2023-03-12T15:37:32.731Z,16.86
2023-03-12T15:40:02.331Z,16.87
2023-03-12T15:42:30.303Z,16.91
2023-03-12T15:45:02.776Z,16.88
2023-03-12T15:47:31.987Z,16.80
2023-03-12T15:50:01.526Z,16.82
2023-03-12T15:52:31.216Z,16.84
2023-03-12T15:55:09.117Z,16.84
2023-03-12T15:57:45.946Z,16.81
2023-03-12T16:00:21.487Z,16.83
2023-03-12T16:02:56.817Z,16.84
2023-03-12T16:05:27.139Z,16.81
2023-03-12T16:07:55.185Z,16.78
2023-03-12T16:10:24.121Z,16.71
2023-03-12T16:12:52.240Z,16.69
2023-03-12T16:15:23.864Z,16.64
2023-03-12T16:17:54.157Z,16.63
2023-03-12T16:20:22.155Z,16.65
2023-03-12T16:22:50.043Z,16.63
2023-03-12T16:25:17.971Z,16.64
2023-03-12T16:27:49.325Z,16.63
2023-03-12T16:30:19.231Z,16.62
2023-03-12T16:32:48.688Z,16.58
2023-03-12T16:35:18.044Z,16.57
2023-03-12T16:37:46.168Z,16.58
2023-03-12T16:40:24.016Z,16.57
2023-03-12T16:43:02.544Z,16.57
2023-03-12T16:45:30.617Z,16.56
2023-03-12T16:48:01.367Z,16.54
2023-03-12T16:50:29.556Z,16.49
2023-03-12T16:52:57.790Z,16.45
2023-03-12T16:55:27.788Z,16.42
2023-03-12T16:57:56.951Z,16.40
2023-03-12T17:00:25.625Z,16.36
2023-03-12T17:02:57.805Z,16.34
2023-03-12T17:05:27.294Z,16.34
2023-03-12T17:07:55.277Z,16.37
2023-03-12T17:10:23.171Z,16.42
2023-03-12T17:12:51.223Z,16.42
2023-03-12T17:15:21.131Z,16.39
2023-03-12T17:17:49.092Z,16.38
2023-03-12T17:20:17.803Z,16.38
2023-03-12T17:22:47.193Z,16.34
2023-03-12T17:25:20.737Z,16.29
2023-03-12T17:27:48.708Z,16.23
2023-03-12T17:30:16.782Z,16.23
2023-03-12T17:32:44.776Z,16.14
2023-03-12T17:35:13.025Z,16.17
2023-03-12T17:37:40.985Z,16.14
2023-03-12T17:40:11.495Z,16.13
2023-03-12T17:42:39.928Z,16.12
2023-03-12T17:45:08.900Z,16.13
2023-03-12T17:47:36.828Z,16.15
2023-03-12T17:50:04.862Z,16.09
2023-03-12T17:52:33.161Z,16.10
2023-03-12T17:55:01.355Z,16.14
2023-03-12T17:57:30.915Z,16.14
2023-03-12T17:59:58.849Z,16.12
2023-03-12T18:02:26.694Z,16.12
2023-03-12T18:04:54.646Z,16.14
2023-03-12T18:07:22.667Z,16.18
2023-03-12T18:09:50.794Z,16.22
2023-03-12T18:12:18.992Z,16.20
2023-03-12T18:14:48.496Z,16.22
2023-03-12T18:17:16.522Z,16.29
2023-03-12T18:19:44.745Z,16.27
2023-03-12T18:22:14.500Z,16.28
2023-03-12T18:24:42.393Z,16.23
2023-03-12T18:27:10.319Z,16.23
2023-03-12T18:29:38.247Z,16.17
2023-03-12T18:32:07.794Z,16.17
2023-03-12T18:34:35.846Z,16.16
2023-03-12T18:37:03.731Z,16.15
2023-03-12T18:39:31.816Z,16.09
2023-03-12T18:41:59.769Z,16.13
2023-03-12T18:44:27.896Z,16.16
2023-03-12T18:46:56.133Z,16.20
2023-03-12T18:49:25.478Z,16.19
2023-03-12T18:51:56.012Z,16.18
2023-03-12T18:54:24.886Z,16.19
2023-03-12T18:56:53.070Z,16.23
2023-03-12T18:59:21.387Z,16.23
2023-03-12T19:01:49.766Z,16.22
2023-03-12T19:04:18.612Z,16.20
2023-03-12T19:06:51.462Z,16.24
2023-03-12T19:09:19.940Z,16.22
2023-03-12T19:11:48.136Z,16.24
2023-03-12T19:14:16.267Z,16.24
2023-03-12T19:16:44.130Z,16.23
2023-03-12T19:19:12.140Z,16.26
2023-03-12T19:21:40.186Z,16.29
2023-03-12T19:24:10.702Z,16.27
2023-03-12T19:26:38.642Z,16.29
2023-03-12T19:29:06.632Z,16.36
2023-03-12T19:31:34.618Z,16.38
2023-03-12T19:34:02.613Z,16.38
2023-03-12T19:36:30.530Z,16.37
2023-03-12T19:38:59.724Z,16.46
2023-03-12T19:41:29.278Z,16.46
2023-03-12T19:43:57.482Z,16.47
2023-03-12T19:46:25.417Z,16.56
2023-03-12T19:48:53.367Z,16.56
2023-03-12T19:51:21.342Z,16.50
2023-03-12T19:53:49.510Z,16.59
2023-03-12T19:56:18.581Z,16.67
2023-03-12T19:58:47.890Z,16.76
2023-03-12T20:01:15.959Z,16.84
2023-03-12T20:03:44.084Z,16.84
2023-03-12T20:06:12.299Z,16.77
2023-03-12T20:08:40.372Z,16.74
2023-03-12T20:11:09.518Z,16.74
2023-03-12T20:13:38.057Z,16.74
2023-03-12T20:16:08.993Z,16.82
2023-03-12T20:18:37.121Z,16.82
2023-03-12T20:21:05.333Z,16.76
2023-03-12T20:23:33.288Z,16.78
2023-03-12T20:26:01.245Z,16.75
2023-03-12T20:28:29.192Z,16.74
2023-03-12T20:30:57.178Z,16.75
2023-03-12T20:33:26.480Z,16.76
2023-03-12T20:35:56.064Z,16.69
2023-03-12T20:38:24.151Z,16.79
2023-03-12T20:40:52.076Z,16.78
2023-03-12T20:43:19.991Z,16.87
2023-03-12T20:45:48.363Z,16.83
2023-03-12T20:48:16.326Z,16.82
2023-03-12T20:50:45.593Z,16.82
2023-03-12T20:53:13.512Z,16.82
2023-03-12T20:55:41.487Z,16.81
2023-03-12T20:58:09.509Z,16.84
2023-03-12T21:00:37.430Z,16.90
2023-03-12T21:03:05.331Z,16.82
2023-03-12T21:05:33.263Z,16.75
2023-03-12T21:08:02.678Z,16.70
2023-03-12T21:10:31.627Z,16.79
2023-03-12T21:12:59.789Z,16.88
2023-03-12T21:15:27.921Z,16.86
2023-03-12T21:17:55.839Z,16.77
2023-03-12T21:20:23.786Z,16.87
2023-03-12T21:22:51.728Z,16.77
2023-03-12T21:25:21.118Z,16.66
2023-03-12T21:27:51.496Z,16.73
2023-03-12T21:30:20.000Z,16.71
2023-03-12T21:32:47.903Z,16.56
2023-03-12T21:35:16.065Z,16.72
2023-03-12T21:37:43.970Z,16.75
2023-03-12T21:40:13.207Z,16.70
2023-03-12T21:42:42.549Z,16.71
2023-03-12T21:45:12.244Z,16.91
2023-03-12T21:47:40.480Z,16.91
2023-03-12T21:50:09.150Z,16.99
2023-03-12T21:52:43.020Z,17.03
2023-03-12T21:55:11.932Z,17.04
2023-03-12T21:57:39.870Z,16.98
2023-03-12T22:00:13.117Z,16.95
2023-03-12T22:02:41.548Z,17.06
2023-03-12T22:05:09.895Z,17.00
2023-03-12T22:07:37.835Z,16.92
2023-03-12T22:10:06.053Z,16.90
2023-03-12T22:12:33.970Z,17.01
2023-03-12T22:15:01.891Z,16.92
2023-03-12T22:17:31.723Z,16.99
2023-03-12T22:19:59.732Z,17.00
2023-03-12T22:22:27.614Z,17.01
2023-03-12T22:24:55.576Z,17.00
2023-03-12T22:27:23.534Z,16.99
2023-03-12T22:29:53.053Z,16.94
2023-03-12T22:32:21.176Z,16.94
2023-03-12T22:34:50.523Z,16.95
2023-03-12T22:37:18.910Z,16.94
2023-03-12T22:39:46.772Z,16.96
2023-03-12T22:42:14.663Z,16.97
2023-03-12T22:44:42.735Z,17.05
2023-03-12T22:47:10.739Z,17.06
2023-03-12T22:49:38.621Z,17.07
2023-03-12T22:52:08.291Z,17.08
2023-03-12T22:54:36.280Z,16.96
2023-03-12T22:57:04.543Z,17.03
2023-03-12T22:59:32.531Z,16.99
2023-03-12T23:02:00.473Z,17.00
2023-03-12T23:04:28.559Z,16.99
2023-03-12T23:07:11.269Z,16.99
2023-03-12T23:09:42.817Z,16.99
2023-03-12T23:12:10.853Z,16.92
2023-03-12T23:14:38.804Z,16.93
2023-03-12T23:17:06.778Z,16.83
2023-03-12T23:19:34.854Z,16.89
2023-03-12T23:22:02.808Z,16.79
2023-03-12T23:24:31.311Z,16.79
2023-03-12T23:27:00.553Z,16.71
2023-03-12T23:29:28.443Z,16.72
2023-03-12T23:31:56.370Z,16.66
2023-03-12T23:34:24.246Z,16.64
2023-03-12T23:36:52.236Z,16.63
2023-03-12T23:39:20.156Z,16.65
2023-03-12T23:41:48.214Z,16.59
2023-03-12T23:44:17.515Z,16.63
2023-03-12T23:46:45.971Z,16.67
2023-03-12T23:49:13.843Z,16.59
2023-03-12T23:51:41.806Z,16.63
2023-03-12T23:54:09.704Z,16.63
2023-03-12T23:56:38.799Z,16.61
2023-03-12T23:59:07.175Z,16.61
